Time;durP1;ratioP1;P1;durP2;ratioP2;P2;SDS_P1;SDS_P2;PMS_P1;PMS_P2;Temp;Humidity;BMP_temperature;BMP_pressure;BME280_temperature;BME280_humidity;BME280_pressure;Samples;Min_cycle;Max_cycle;Signal;HPM_P1;HPM_P2
2021/08/31 00:00:34;;;;;;;27.52;19.92;;;14.80;94.60;;;;;;5071929;28;20500;-76
2021/08/31 00:03:00;;;;;;;24.92;20.50;;;14.80;94.70;;;;;;5037711;28;20396;-76
2021/08/31 00:05:26;;;;;;;27.58;20.20;;;14.80;94.70;;;;;;5070712;28;20426;-81
2021/08/31 00:07:52;;;;;;;24.98;19.55;;;14.80;94.80;;;;;;5056799;28;20039;-76
2021/08/31 00:10:17;;;;;;;27.25;19.85;;;14.80;94.80;;;;;;5074498;28;20036;-76
2021/08/31 00:12:43;;;;;;;29.40;20.98;;;14.80;94.80;;;;;;5072659;28;20766;-77
2021/08/31 00:15:11;;;;;;;24.23;19.65;;;14.70;94.80;;;;;;5075196;28;20048;-78
2021/08/31 00:17:37;;;;;;;27.30;21.02;;;14.80;94.90;;;;;;5069111;28;20105;-77
2021/08/31 00:20:06;;;;;;;28.10;21.27;;;14.70;94.90;;;;;;5078162;28;20032;-76
2021/08/31 00:22:32;;;;;;;25.73;20.83;;;14.70;95.00;;;;;;5088294;28;20063;-80
2021/08/31 00:24:57;;;;;;;30.35;22.80;;;14.70;95.00;;;;;;5076160;28;20036;-76
2021/08/31 00:27:23;;;;;;;26.90;20.52;;;14.70;95.10;;;;;;5076922;28;20146;-77
2021/08/31 00:29:49;;;;;;;29.48;21.08;;;14.70;95.10;;;;;;5077993;28;20257;-76
2021/08/31 00:32:14;;;;;;;25.80;21.40;;;14.70;95.10;;;;;;5071400;28;20486;-76
2021/08/31 00:34:40;;;;;;;30.92;21.92;;;14.70;95.10;;;;;;5079946;28;20036;-75
2021/08/31 00:37:06;;;;;;;28.58;21.33;;;14.60;95.10;;;;;;5096955;28;20032;-77
2021/08/31 00:39:32;;;;;;;29.98;21.13;;;14.60;95.20;;;;;;5082249;28;20396;-81
2021/08/31 00:41:58;;;;;;;30.48;22.92;;;14.60;95.20;;;;;;5060658;28;20056;-75
2021/08/31 00:44:25;;;;;;;28.52;22.48;;;14.60;95.30;;;;;;5077034;28;20495;-76
2021/08/31 00:47:02;;;;;;;32.05;24.50;;;14.60;95.30;;;;;;5080757;28;20103;-75
2021/08/31 00:49:28;;;;;;;29.85;22.08;;;14.50;95.40;;;;;;5082364;28;20427;-76
2021/08/31 00:51:57;;;;;;;28.60;23.17;;;14.50;95.40;;;;;;5084442;28;20028;-78
2021/08/31 00:54:25;;;;;;;32.70;22.42;;;14.50;95.50;;;;;;5096403;28;20027;-78
2021/08/31 00:56:52;;;;;;;29.35;22.27;;;14.50;95.50;;;;;;5061619;28;20040;-75
2021/08/31 00:59:21;;;;;;;30.30;22.63;;;14.50;95.60;;;;;;5077111;28;20085;-75
2021/08/31 01:01:50;;;;;;;28.25;22.75;;;14.50;95.60;;;;;;5075920;28;20037;-77
2021/08/31 01:04:19;;;;;;;31.60;24.00;;;14.50;95.60;;;;;;5077353;28;20021;-76
2021/08/31 01:06:46;;;;;;;32.35;22.70;;;14.50;95.60;;;;;;5082921;28;20144;-78
2021/08/31 01:09:12;;;;;;;30.48;23.13;;;14.50;95.60;;;;;;5081270;28;20472;-76
2021/08/31 01:11:38;;;;;;;27.58;23.33;;;14.50;95.60;;;;;;5082390;28;20028;-78
2021/08/31 01:14:07;;;;;;;31.58;23.50;;;14.50;95.70;;;;;;5095347;28;20028;-75
2021/08/31 01:16:33;;;;;;;31.00;21.80;;;14.60;95.70;;;;;;5078947;28;20032;-77
2021/08/31 01:18:59;;;;;;;29.08;22.30;;;14.50;95.70;;;;;;5080533;28;20054;-77
2021/08/31 01:21:24;;;;;;;29.92;22.30;;;14.50;95.70;;;;;;5091029;28;20484;-78
2021/08/31 01:23:51;;;;;;;31.65;22.90;;;14.50;95.70;;;;;;5074867;28;20427;-77
2021/08/31 01:26:16;;;;;;;31.55;23.65;;;14.50;95.70;;;;;;5058358;28;20033;-76
2021/08/31 01:28:42;;;;;;;29.05;23.13;;;14.50;95.70;;;;;;5076277;28;20530;-77
2021/08/31 01:31:08;;;;;;;28.85;21.75;;;14.40;95.70;;;;;;5104369;28;20357;-78
2021/08/31 01:33:34;;;;;;;29.58;21.92;;;14.40;95.80;;;;;;5075156;28;20036;-77
2021/08/31 01:36:18;;;;;;;26.30;21.23;;;14.40;95.80;;;;;;5074802;28;20037;-78
2021/08/31 01:38:45;;;;;;;27.67;21.05;;;14.40;95.80;;;;;;5074919;28;20029;-79
2021/08/31 01:41:11;;;;;;;33.30;23.88;;;14.40;95.90;;;;;;5080179;28;20119;-76
2021/08/31 01:43:37;;;;;;;29.27;23.50;;;14.40;95.90;;;;;;5094425;28;20132;-76
2021/08/31 01:46:03;;;;;;;29.67;22.30;;;14.40;95.90;;;;;;5093091;28;20050;-76
2021/08/31 01:48:29;;;;;;;29.25;23.08;;;14.40;95.90;;;;;;5078656;28;20028;-76
2021/08/31 01:50:55;;;;;;;33.90;22.92;;;14.30;95.90;;;;;;5072507;28;20021;-77
2021/08/31 01:53:20;;;;;;;29.63;22.75;;;14.30;95.90;;;;;;5074395;28;20036;-76
2021/08/31 01:55:46;;;;;;;30.95;24.13;;;14.30;96.00;;;;;;5073358;28;20037;-76
2021/08/31 01:58:12;;;;;;;31.20;23.00;;;14.30;96.00;;;;;;5082628;28;20115;-76
2021/08/31 02:00:38;;;;;;;31.15;23.05;;;14.30;96.00;;;;;;5082592;28;20443;-77
2021/08/31 02:03:04;;;;;;;30.52;23.85;;;14.30;96.00;;;;;;5094636;28;20047;-77
2021/08/31 02:05:29;;;;;;;32.03;23.75;;;14.30;96.00;;;;;;5092257;28;20111;-77
2021/08/31 02:07:55;;;;;;;30.17;22.40;;;14.30;96.00;;;;;;5074220;28;20164;-76
2021/08/31 02:10:21;;;;;;;28.50;22.58;;;14.30;96.10;;;;;;5090714;28;20073;-78
2021/08/31 02:12:47;;;;;;;32.40;24.25;;;14.30;96.10;;;;;;5072504;28;20468;-75
2021/08/31 02:15:13;;;;;;;32.97;25.63;;;14.20;96.10;;;;;;5073089;28;20032;-77
2021/08/31 02:17:39;;;;;;;35.90;24.88;;;14.20;96.10;;;;;;5058867;28;20460;-76
2021/08/31 02:20:06;;;;;;;33.13;24.45;;;14.30;96.20;;;;;;5077619;28;20505;-75
2021/08/31 02:22:32;;;;;;;37.45;25.98;;;14.30;96.20;;;;;;5074348;28;20028;-78
2021/08/31 02:24:58;;;;;;;39.35;27.90;;;14.20;96.20;;;;;;5083243;28;20475;-76
2021/08/31 02:27:24;;;;;;;38.97;27.80;;;14.20;96.20;;;;;;5078099;28;20484;-77
2021/08/31 02:29:49;;;;;;;38.70;29.17;;;14.30;96.30;;;;;;5073549;28;20040;-77
2021/08/31 02:32:15;;;;;;;39.33;28.75;;;14.30;96.30;;;;;;5074446;28;20098;-77
2021/08/31 02:34:43;;;;;;;43.90;29.48;;;14.30;96.30;;;;;;5073332;28;20031;-77
2021/08/31 02:37:09;;;;;;;38.42;28.15;;;14.40;96.30;;;;;;5081972;28;20381;-77
2021/08/31 02:39:34;;;;;;;39.85;30.38;;;14.50;96.30;;;;;;5083979;28;20480;-76
2021/08/31 02:42:00;;;;;;;48.35;34.47;;;14.60;96.30;;;;;;5074728;28;20464;-77
2021/08/31 02:44:26;;;;;;;52.05;34.28;;;14.70;96.20;;;;;;5074676;28;20484;-77
2021/08/31 02:46:51;;;;;;;47.42;34.53;;;14.70;96.20;;;;;;5072599;28;20461;-77
2021/08/31 02:49:17;;;;;;;64.20;40.17;;;14.80;96.20;;;;;;5071297;28;20033;-78
2021/08/31 02:51:42;;;;;;;49.47;34.20;;;14.80;96.20;;;;;;5073156;28;20028;-78
2021/08/31 02:54:08;;;;;;;47.22;31.70;;;14.80;96.20;;;;;;5100339;28;20604;-77
2021/08/31 02:56:34;;;;;;;47.65;34.80;;;14.90;96.30;;;;;;5112526;28;20054;-77
2021/08/31 02:58:59;;;;;;;49.35;34.50;;;15.00;96.30;;;;;;5078012;28;20111;-78
2021/08/31 03:02:07;;;;;;;48.03;32.72;;;15.00;96.20;;;;;;5087766;28;20473;-78
2021/08/31 03:04:13;;;;;;;49.65;35.13;;;15.00;96.20;;;;;;5065190;28;20040;-77
2021/08/31 03:06:39;;;;;;;53.38;36.17;;;15.10;96.10;;;;;;5070710;28;20043;-77
2021/08/31 03:09:04;;;;;;;49.63;34.40;;;15.00;96.10;;;;;;5078851;28;20024;-77
2021/08/31 03:11:30;;;;;;;78.57;40.63;;;15.10;96.10;;;;;;5071472;28;20078;-77
2021/08/31 03:13:56;;;;;;;55.05;36.45;;;15.00;96.00;;;;;;5090252;28;20119;-76
2021/08/31 03:16:21;;;;;;;56.55;37.78;;;15.00;96.10;;;;;;5078757;28;20122;-77
2021/08/31 03:18:47;;;;;;;65.55;39.85;;;14.90;96.10;;;;;;5056570;28;20059;-77
2021/08/31 03:21:13;;;;;;;53.30;35.25;;;14.90;96.20;;;;;;5071186;28;20543;-77
2021/08/31 03:23:38;;;;;;;59.55;38.33;;;14.90;96.20;;;;;;5089234;28;20085;-77
2021/08/31 03:26:04;;;;;;;61.35;39.97;;;14.90;96.30;;;;;;5088229;28;20129;-78
2021/08/31 03:28:29;;;;;;;68.22;42.47;;;14.90;96.30;;;;;;5061802;28;20061;-77
2021/08/31 03:30:56;;;;;;;65.72;42.53;;;14.90;96.30;;;;;;5105340;28;20054;-79
2021/08/31 03:33:21;;;;;;;62.83;40.80;;;14.90;96.40;;;;;;5076228;28;20078;-77
2021/08/31 03:35:47;;;;;;;64.72;41.35;;;14.90;96.40;;;;;;5091925;28;20372;-79
2021/08/31 03:38:13;;;;;;;57.55;37.88;;;14.90;96.50;;;;;;5077412;28;20031;-77
2021/08/31 03:40:38;;;;;;;63.42;42.40;;;14.90;96.50;;;;;;5081821;28;20098;-79
2021/08/31 03:43:04;;;;;;;67.20;42.33;;;14.90;96.50;;;;;;5086551;28;20053;-78
2021/08/31 03:45:30;;;;;;;65.10;40.22;;;14.90;96.50;;;;;;5087438;28;20047;-76
2021/08/31 03:47:56;;;;;;;61.20;40.08;;;15.00;96.50;;;;;;5070236;28;20052;-82
2021/08/31 03:50:22;;;;;;;59.42;37.70;;;15.00;96.50;;;;;;5085850;28;20036;-76
2021/08/31 03:52:48;;;;;;;57.28;38.30;;;15.10;96.50;;;;;;5102324;28;20047;-76
2021/08/31 03:55:13;;;;;;;49.90;35.78;;;15.20;96.50;;;;;;5101367;28;20100;-78
2021/08/31 03:57:39;;;;;;;62.47;41.63;;;15.30;96.40;;;;;;5086767;28;20035;-77
2021/08/31 04:00:06;;;;;;;56.42;38.85;;;15.30;96.50;;;;;;5090002;28;20055;-77
2021/08/31 04:02:32;;;;;;;55.50;38.80;;;15.30;96.20;;;;;;5090818;28;20119;-77
2021/08/31 04:04:57;;;;;;;55.10;37.22;;;15.30;96.20;;;;;;5092373;28;20032;-80
2021/08/31 04:07:23;;;;;;;45.72;33.45;;;15.20;96.10;;;;;;5077545;28;20055;-77
2021/08/31 04:09:50;;;;;;;48.20;32.95;;;15.20;96.20;;;;;;5080393;28;20029;-77
2021/08/31 04:12:15;;;;;;;48.38;34.80;;;15.30;96.20;;;;;;5071733;28;20036;-77
2021/08/31 04:14:41;;;;;;;48.20;35.15;;;15.30;96.10;;;;;;5070359;28;20031;-76
2021/08/31 04:17:07;;;;;;;49.00;34.85;;;15.40;96.10;;;;;;5069916;28;20028;-77
2021/08/31 04:19:32;;;;;;;47.17;35.28;;;15.40;96.00;;;;;;5070531;28;20067;-77
2021/08/31 04:21:58;;;;;;;44.97;32.97;;;15.40;95.90;;;;;;5084893;28;20048;-80
2021/08/31 04:24:23;;;;;;;45.63;33.55;;;15.40;95.90;;;;;;5085432;28;20424;-77
2021/08/31 04:26:49;;;;;;;43.30;32.85;;;15.40;95.90;;;;;;5073792;28;20437;-77
2021/08/31 04:29:15;;;;;;;43.40;31.70;;;15.50;95.80;;;;;;5089841;28;20157;-77
2021/08/31 04:31:40;;;;;;;42.40;33.10;;;15.50;95.80;;;;;;5085447;28;20480;-77
2021/08/31 04:34:06;;;;;;;42.38;31.48;;;15.50;95.70;;;;;;5070000;28;20131;-78
2021/08/31 04:36:31;;;;;;;42.60;31.77;;;15.50;95.60;;;;;;5070319;28;20125;-77
2021/08/31 04:38:57;;;;;;;42.35;31.15;;;15.50;95.60;;;;;;5075028;28;20078;-77
2021/08/31 04:41:23;;;;;;;40.08;29.05;;;15.50;95.60;;;;;;5086260;28;20028;-77
2021/08/31 04:43:48;;;;;;;39.20;29.13;;;15.50;95.50;;;;;;5073639;28;20121;-77
2021/08/31 04:46:14;;;;;;;38.88;30.38;;;15.50;95.50;;;;;;5085268;28;20492;-77
2021/08/31 04:48:40;;;;;;;39.42;30.50;;;15.50;95.50;;;;;;5073828;28;20028;-77
2021/08/31 04:51:06;;;;;;;38.47;30.88;;;15.50;95.40;;;;;;5071673;28;20033;-78
2021/08/31 04:53:32;;;;;;;40.97;30.92;;;15.60;95.60;;;;;;5080843;28;20036;-77
2021/08/31 04:55:57;;;;;;;34.95;28.00;;;15.60;95.30;;;;;;5085443;28;20070;-77
2021/08/31 04:58:23;;;;;;;31.67;26.60;;;15.60;95.30;;;;;;5069872;28;20016;-76
2021/08/31 05:00:49;;;;;;;39.22;29.00;;;15.60;95.20;;;;;;5053391;28;20059;-77
2021/08/31 05:03:14;;;;;;;34.25;26.30;;;15.60;95.20;;;;;;5063579;28;20036;-77
2021/08/31 05:05:42;;;;;;;38.25;29.05;;;15.60;95.10;;;;;;5094000;28;20115;-77
2021/08/31 05:08:07;;;;;;;33.38;26.10;;;15.60;95.00;;;;;;5072297;28;20021;-78
2021/08/31 05:10:33;;;;;;;37.42;26.98;;;15.60;95.10;;;;;;5074266;28;20477;-77
2021/08/31 05:12:58;;;;;;;31.80;26.00;;;15.70;95.00;;;;;;5073298;28;20039;-77
2021/08/31 05:15:24;;;;;;;33.55;26.27;;;15.70;95.00;;;;;;5073820;28;20024;-77
2021/08/31 05:17:50;;;;;;;35.35;27.27;;;15.70;94.90;;;;;;5056422;28;20116;-76
2021/08/31 05:20:18;;;;;;;33.40;25.92;;;15.70;94.90;;;;;;5077279;28;20024;-77
2021/08/31 05:22:43;;;;;;;34.58;26.73;;;15.80;94.90;;;;;;5073551;28;20385;-76
2021/08/31 05:25:09;;;;;;;33.72;26.13;;;15.80;94.80;;;;;;5073954;28;20024;-78
2021/08/31 05:27:35;;;;;;;35.67;27.90;;;15.80;94.70;;;;;;5073119;28;20073;-78
2021/08/31 05:30:03;;;;;;;31.38;25.05;;;15.70;94.60;;;;;;5074189;28;20083;-76
2021/08/31 05:32:28;;;;;;;30.17;24.55;;;15.60;94.60;;;;;;5071539;28;20120;-79
2021/08/31 05:34:54;;;;;;;33.60;25.15;;;15.60;94.60;;;;;;5075294;28;20111;-78
2021/08/31 05:37:20;;;;;;;32.63;24.83;;;15.60;94.60;;;;;;5074993;28;20024;-77
2021/08/31 05:39:45;;;;;;;33.50;26.05;;;15.60;94.60;;;;;;5074526;28;20036;-77
2021/08/31 05:42:11;;;;;;;37.03;26.52;;;15.60;94.60;;;;;;5056166;28;20096;-79
2021/08/31 05:44:39;;;;;;;36.67;27.02;;;15.60;94.50;;;;;;5072521;28;20036;-76
2021/08/31 05:47:06;;;;;;;33.03;26.67;;;15.60;94.50;;;;;;5085177;28;20029;-75
2021/08/31 05:49:32;;;;;;;39.75;29.83;;;15.70;94.50;;;;;;5092451;28;20119;-77
2021/08/31 05:51:58;;;;;;;34.75;27.35;;;15.70;94.50;;;;;;5093589;28;20020;-78
2021/08/31 05:54:25;;;;;;;36.25;28.25;;;15.70;94.40;;;;;;5070805;28;20021;-77
2021/08/31 05:56:52;;;;;;;36.17;29.05;;;15.70;94.40;;;;;;5078811;28;20035;-77
2021/08/31 05:59:17;;;;;;;36.80;28.92;;;15.70;94.30;;;;;;5069308;28;20048;-78
2021/08/31 06:01:44;;;;;;;35.67;29.73;;;15.80;94.30;;;;;;5077964;28;20048;-77
2021/08/31 06:04:11;;;;;;;36.28;28.13;;;15.80;94.10;;;;;;5070758;28;20044;-79
2021/08/31 06:06:37;;;;;;;33.15;27.13;;;15.80;94.10;;;;;;5106612;28;20032;-76
2021/08/31 06:09:03;;;;;;;35.15;26.52;;;15.70;94.00;;;;;;5094090;28;20020;-76
2021/08/31 06:11:31;;;;;;;35.50;27.65;;;15.80;94.00;;;;;;5080093;28;20547;-77
2021/08/31 06:13:57;;;;;;;35.22;27.33;;;15.80;94.00;;;;;;5081856;28;20089;-79
2021/08/31 06:16:22;;;;;;;31.27;25.70;;;15.80;94.00;;;;;;5090520;28;20036;-77
2021/08/31 06:18:48;;;;;;;32.72;24.92;;;15.90;93.90;;;;;;5095213;28;20029;-79
2021/08/31 06:21:14;;;;;;;28.98;23.83;;;15.90;93.80;;;;;;5106690;28;20030;-84
2021/08/31 06:23:39;;;;;;;28.85;23.80;;;15.90;93.80;;;;;;5058252;28;20071;-77
2021/08/31 06:26:05;;;;;;;30.13;24.55;;;15.90;93.80;;;;;;5092048;28;20796;-77
2021/08/31 06:28:32;;;;;;;31.40;25.33;;;16.00;93.70;;;;;;5074713;28;20033;-76
2021/08/31 06:30:58;;;;;;;31.92;24.27;;;16.00;93.70;;;;;;5071790;28;20020;-76
2021/08/31 06:33:24;;;;;;;30.60;24.23;;;16.00;93.70;;;;;;5072386;28;20028;-77
2021/08/31 06:35:49;;;;;;;30.20;23.33;;;16.10;93.70;;;;;;5079546;28;20024;-76
2021/08/31 06:38:15;;;;;;;30.48;24.35;;;16.20;93.60;;;;;;5089704;28;20365;-79
2021/08/31 06:40:41;;;;;;;29.08;24.17;;;16.20;93.70;;;;;;5077648;28;20033;-79
2021/08/31 06:43:07;;;;;;;32.85;25.25;;;16.30;93.50;;;;;;5089906;28;20140;-76
2021/08/31 06:45:32;;;;;;;28.48;22.83;;;16.30;93.30;;;;;;5051910;28;20028;-77
2021/08/31 06:47:58;;;;;;;28.80;22.45;;;16.40;93.20;;;;;;5047187;28;20536;-78
2021/08/31 06:50:24;;;;;;;28.85;22.85;;;16.40;93.10;;;;;;5073172;28;20040;-78
2021/08/31 06:52:50;;;;;;;29.30;22.75;;;16.50;93.00;;;;;;5079402;28;20032;-76
2021/08/31 06:55:15;;;;;;;28.27;22.83;;;16.50;92.90;;;;;;5088976;28;20372;-78
2021/08/31 06:57:41;;;;;;;28.98;21.30;;;16.60;92.70;;;;;;5069324;28;20042;-77
2021/08/31 07:00:08;;;;;;;27.05;20.55;;;16.70;92.70;;;;;;5103613;28;20042;-79
2021/08/31 07:02:34;;;;;;;26.65;21.27;;;16.80;92.50;;;;;;5082852;28;20040;-76
2021/08/31 07:05:00;;;;;;;28.02;22.45;;;16.90;92.30;;;;;;5086184;28;20027;-76
2021/08/31 07:07:26;;;;;;;26.73;20.67;;;16.90;91.90;;;;;;5086449;28;20043;-77
2021/08/31 07:09:52;;;;;;;30.92;22.40;;;16.90;91.80;;;;;;5079388;28;20469;-77
2021/08/31 07:12:18;;;;;;;29.42;22.48;;;17.00;91.70;;;;;;5053298;28;20062;-76
2021/08/31 07:14:46;;;;;;;29.13;21.67;;;16.80;91.70;;;;;;5071168;28;21128;-77
2021/08/31 07:17:12;;;;;;;26.52;21.70;;;16.90;91.80;;;;;;5083400;28;20024;-77
2021/08/31 07:19:37;;;;;;;27.33;22.50;;;16.90;91.80;;;;;;5073378;28;20051;-77
2021/08/31 07:22:03;;;;;;;28.08;21.63;;;17.00;91.80;;;;;;5080549;28;20043;-78
2021/08/31 07:24:29;;;;;;;32.50;23.40;;;17.20;91.80;;;;;;5105836;28;20365;-78
2021/08/31 07:26:55;;;;;;;27.30;21.15;;;17.20;91.60;;;;;;5097499;28;20033;-78
2021/08/31 07:29:21;;;;;;;35.33;22.42;;;17.30;91.50;;;;;;5058339;28;20033;-77
2021/08/31 07:31:46;;;;;;;28.52;21.45;;;17.40;91.30;;;;;;5082774;28;20455;-77
2021/08/31 07:34:12;;;;;;;31.17;22.48;;;17.50;91.20;;;;;;5072949;28;20381;-77
2021/08/31 07:36:38;;;;;;;29.77;21.67;;;17.50;91.10;;;;;;5058519;28;20132;-78
2021/08/31 07:39:03;;;;;;;27.55;20.90;;;17.60;91.20;;;;;;5091395;28;20020;-80
2021/08/31 07:41:30;;;;;;;30.67;22.60;;;17.70;90.80;;;;;;5077594;28;20447;-78
2021/08/31 07:43:57;;;;;;;31.88;22.35;;;17.70;90.80;;;;;;5073795;28;20049;-78
2021/08/31 07:46:23;;;;;;;29.02;21.45;;;17.70;90.70;;;;;;5087795;28;20081;-77
2021/08/31 07:48:48;;;;;;;25.00;19.55;;;17.70;90.70;;;;;;5058713;28;20024;-76
2021/08/31 07:51:14;;;;;;;24.85;19.48;;;17.70;90.60;;;;;;5082095;28;20040;-79
2021/08/31 07:53:40;;;;;;;27.80;19.30;;;17.70;90.60;;;;;;5071715;28;20499;-77
2021/08/31 07:56:06;;;;;;;23.58;18.02;;;17.70;90.50;;;;;;5076460;28;20037;-79
2021/08/31 07:58:33;;;;;;;27.92;18.27;;;17.80;90.40;;;;;;5074168;28;20033;-78
2021/08/31 08:00:59;;;;;;;23.77;17.05;;;17.90;90.10;;;;;;5072874;28;20119;-77
2021/08/31 08:03:26;;;;;;;22.58;17.00;;;18.00;89.40;;;;;;5068690;28;20089;-77
2021/08/31 08:05:51;;;;;;;23.15;16.08;;;18.00;88.90;;;;;;5074310;28;20222;-77
2021/08/31 08:08:17;;;;;;;24.15;16.67;;;18.20;88.40;;;;;;5091712;28;20115;-77
2021/08/31 08:10:43;;;;;;;22.05;15.65;;;18.30;88.00;;;;;;5066989;28;20108;-78
2021/08/31 08:13:08;;;;;;;18.70;13.75;;;18.40;87.40;;;;;;5055552;28;20029;-78
2021/08/31 08:15:35;;;;;;;18.92;14.50;;;18.50;86.60;;;;;;5069392;28;20479;-76
2021/08/31 08:18:01;;;;;;;18.38;14.15;;;18.60;86.50;;;;;;5075122;28;20040;-78
2021/08/31 08:20:28;;;;;;;20.42;14.07;;;18.60;86.30;;;;;;5075964;28;20025;-77
2021/08/31 08:22:53;;;;;;;18.35;14.02;;;18.60;86.20;;;;;;5071579;28;20139;-77
2021/08/31 08:25:19;;;;;;;18.30;13.52;;;18.50;86.30;;;;;;5070891;28;20140;-75
2021/08/31 08:27:45;;;;;;;17.50;12.55;;;18.60;86.40;;;;;;5068010;28;20036;-77
2021/08/31 08:30:12;;;;;;;17.40;12.98;;;18.60;85.90;;;;;;5091566;28;20040;-78
2021/08/31 09:25:10;;;;;;;12.38;8.38;;;20.40;78.20;;;;;;5382090;22;20945;-77
2021/08/31 09:27:41;;;;;;;11.20;7.53;;;20.40;78.00;;;;;;5061212;28;20066;-76
2021/08/31 09:30:33;;;;;;;11.07;8.07;;;20.30;77.30;;;;;;5041053;28;20059;-76
2021/08/31 09:33:08;;;;;;;14.57;8.30;;;20.30;78.10;;;;;;5038531;28;20048;-76
2021/08/31 09:35:42;;;;;;;14.88;8.55;;;20.30;78.00;;;;;;5068479;28;20063;-76
2021/08/31 09:38:13;;;;;;;13.52;8.35;;;20.30;77.70;;;;;;5068373;28;20052;-76
2021/08/31 09:40:48;;;;;;;13.05;8.07;;;20.40;77.60;;;;;;5049914;28;20392;-79
2021/08/31 09:43:18;;;;;;;13.32;8.00;;;20.50;77.50;;;;;;5067245;28;20086;-76
2021/08/31 09:45:47;;;;;;;13.15;7.90;;;20.60;75.50;;;;;;5041143;28;20044;-79
2021/08/31 09:48:15;;;;;;;11.63;7.50;;;20.50;76.50;;;;;;5042585;28;20124;-76
2021/08/31 09:50:52;;;;;;;11.07;7.53;;;20.50;76.00;;;;;;5051742;28;20020;-80
2021/08/31 09:53:26;;;;;;;11.98;6.38;;;20.40;76.30;;;;;;5052090;28;20040;-75
2021/08/31 09:56:01;;;;;;;10.98;7.20;;;20.50;76.40;;;;;;5056946;28;20502;-76
2021/08/31 09:58:28;;;;;;;12.38;7.03;;;20.50;75.30;;;;;;5036976;28;20052;-76
2021/08/31 10:00:54;;;;;;;11.90;6.70;;;20.40;75.80;;;;;;5033018;28;20033;-76
2021/08/31 10:03:21;;;;;;;13.18;7.65;;;20.30;76.00;;;;;;5051801;28;20048;-75
2021/08/31 10:05:48;;;;;;;13.80;6.97;;;20.30;76.00;;;;;;5058248;28;20050;-78
2021/08/31 10:08:19;;;;;;;13.38;6.80;;;20.30;76.20;;;;;;5058331;28;20022;-76
2021/08/31 10:10:49;;;;;;;11.73;6.88;;;20.30;76.30;;;;;;5050850;28;20067;-79
2021/08/31 10:13:17;;;;;;;12.55;7.05;;;20.40;76.30;;;;;;5051120;28;20115;-75
2021/08/31 10:15:49;;;;;;;10.38;7.15;;;20.60;75.90;;;;;;5051523;28;20058;-77
2021/08/31 10:18:16;;;;;;;14.07;7.05;;;20.80;75.40;;;;;;5068160;28;20020;-77
2021/08/31 10:20:54;;;;;;;13.50;7.07;;;20.90;74.40;;;;;;5071495;28;20555;-76
2021/08/31 10:23:32;;;;;;;12.57;6.97;;;21.20;74.10;;;;;;5070191;28;20045;-76
2021/08/31 10:26:22;;;;;;;10.05;5.68;;;21.70;73.00;;;;;;5062803;28;20063;-75
2021/08/31 10:28:52;;;;;;;11.25;5.88;;;22.00;71.90;;;;;;5046028;28;20040;-81
2021/08/31 10:31:31;;;;;;;9.68;5.35;;;22.40;71.00;;;;;;5064505;28;20111;-77
2021/08/31 10:33:57;;;;;;;8.40;5.38;;;22.90;70.00;;;;;;5071098;28;20039;-77
2021/08/31 10:36:36;;;;;;;10.52;5.75;;;23.40;69.10;;;;;;5071887;28;20025;-78
2021/08/31 10:39:06;;;;;;;11.35;5.88;;;23.70;68.10;;;;;;5049691;28;20551;-77
2021/08/31 10:41:45;;;;;;;10.18;5.45;;;24.30;67.50;;;;;;5065936;28;20028;-77
2021/08/31 10:44:31;;;;;;;10.23;5.18;;;25.00;65.00;;;;;;5071711;28;20048;-76
2021/08/31 10:46:56;;;;;;;9.20;5.25;;;25.60;63.80;;;;;;5071455;28;20024;-77
2021/08/31 10:49:23;;;;;;;10.23;5.50;;;25.70;62.30;;;;;;5060252;28;20503;-77
2021/08/31 10:52:09;;;;;;;7.00;5.28;;;25.40;62.30;;;;;;5066351;28;20025;-75
2021/08/31 10:54:46;;;;;;;10.80;5.32;;;25.20;62.10;;;;;;5053959;28;20047;-77
2021/08/31 10:57:36;;;;;;;10.15;5.70;;;25.30;62.70;;;;;;5071457;28;20020;-76
2021/08/31 11:00:14;;;;;;;10.95;5.60;;;25.30;61.90;;;;;;5051736;28;20463;-75
2021/08/31 11:02:48;;;;;;;9.38;5.47;;;25.50;61.90;;;;;;5071242;28;20028;-75
2021/08/31 11:05:24;;;;;;;9.27;5.53;;;25.40;61.20;;;;;;5049375;28;20017;-76
2021/08/31 11:07:52;;;;;;;8.52;5.40;;;25.20;61.40;;;;;;5050984;28;20050;-75
2021/08/31 11:10:22;;;;;;;11.95;5.43;;;25.00;61.60;;;;;;5034086;28;20124;-76
2021/08/31 11:12:48;;;;;;;7.78;5.05;;;25.10;61.60;;;;;;5034369;28;20040;-75
2021/08/31 11:15:21;;;;;;;7.07;5.00;;;25.30;61.60;;;;;;5051364;28;20017;-76
2021/08/31 11:17:49;;;;;;;11.40;5.70;;;25.90;60.60;;;;;;5035034;28;20017;-76
2021/08/31 11:20:17;;;;;;;10.00;5.13;;;26.30;58.90;;;;;;5053553;28;20303;-77
2021/08/31 11:22:49;;;;;;;9.77;5.03;;;26.50;58.50;;;;;;5064105;28;20127;-76
2021/08/31 11:25:16;;;;;;;7.22;4.68;;;26.50;57.50;;;;;;5064714;28;20028;-76
2021/08/31 11:27:58;;;;;;;7.47;4.95;;;26.20;57.80;;;;;;5053500;28;20357;-76
2021/08/31 11:30:24;;;;;;;8.65;4.95;;;25.70;58.20;;;;;;5071148;28;20036;-74
2021/08/31 11:33:11;;;;;;;10.57;5.00;;;25.20;59.40;;;;;;5072061;28;20025;-75
2021/08/31 11:35:36;;;;;;;10.10;5.50;;;24.60;60.40;;;;;;5071711;28;20021;-75
2021/08/31 11:38:02;;;;;;;8.30;4.68;;;24.20;61.30;;;;;;5071558;28;20140;-78
2021/08/31 11:40:28;;;;;;;8.48;5.15;;;24.40;61.70;;;;;;5071570;28;20060;-77
2021/08/31 11:42:56;;;;;;;9.27;5.00;;;24.40;61.00;;;;;;5071087;28;20037;-76
2021/08/31 11:45:40;;;;;;;10.35;5.00;;;24.60;61.80;;;;;;5068360;28;20028;-76
2021/08/31 11:48:07;;;;;;;8.55;4.90;;;25.00;61.20;;;;;;5051191;28;20025;-76
2021/08/31 11:50:34;;;;;;;8.93;4.82;;;25.10;60.40;;;;;;5052670;28;20048;-77
2021/08/31 11:53:18;;;;;;;8.60;4.45;;;25.20;60.30;;;;;;5069093;28;20377;-80
2021/08/31 11:55:54;;;;;;;7.45;4.57;;;25.50;59.80;;;;;;5070147;28;20055;-76
2021/08/31 11:58:20;;;;;;;9.45;5.32;;;25.80;59.20;;;;;;5071887;28;20017;-76
2021/08/31 12:00:45;;;;;;;9.35;5.43;;;26.10;58.30;;;;;;5072154;28;20370;-75
2021/08/31 12:03:40;;;;;;;9.63;5.30;;;26.20;58.10;;;;;;5053242;28;20055;-75
2021/08/31 12:06:10;;;;;;;10.07;5.00;;;26.20;57.70;;;;;;5029139;28;20075;-77
2021/08/31 12:08:42;;;;;;;8.88;4.57;;;26.10;57.80;;;;;;5054360;28;20031;-77
2021/08/31 12:11:14;;;;;;;7.63;4.82;;;26.10;56.80;;;;;;5066668;28;20033;-77
2021/08/31 12:13:44;;;;;;;8.20;4.97;;;26.00;56.80;;;;;;5077160;28;20021;-76
2021/08/31 12:16:12;;;;;;;8.85;4.30;;;25.80;56.10;;;;;;5067390;28;20018;-75
2021/08/31 12:18:38;;;;;;;7.75;4.63;;;25.30;55.90;;;;;;5075592;28;20052;-77
2021/08/31 12:21:19;;;;;;;7.65;3.88;;;25.20;57.20;;;;;;5074697;28;20025;-78
2021/08/31 12:23:46;;;;;;;7.07;3.75;;;25.30;57.10;;;;;;5071648;28;20035;-75
2021/08/31 12:26:30;;;;;;;8.88;4.13;;;25.60;57.20;;;;;;5075003;28;20052;-75
2021/08/31 12:28:59;;;;;;;9.30;4.05;;;25.90;55.80;;;;;;5077484;28;20021;-75
2021/08/31 12:31:25;;;;;;;5.55;3.95;;;25.80;56.10;;;;;;5076366;28;20040;-75
2021/08/31 12:33:50;;;;;;;7.55;4.57;;;25.80;56.20;;;;;;5076229;28;20039;-75
2021/08/31 12:36:16;;;;;;;6.63;4.18;;;25.50;56.80;;;;;;5074427;28;20150;-75
2021/08/31 12:38:45;;;;;;;7.57;4.72;;;25.40;57.40;;;;;;5056527;28;20109;-76
2021/08/31 12:41:14;;;;;;;7.53;4.50;;;25.60;57.20;;;;;;5073845;28;20028;-74
2021/08/31 12:43:43;;;;;;;9.10;5.35;;;25.70;56.90;;;;;;5074011;28;20060;-75
2021/08/31 12:46:08;;;;;;;8.05;4.28;;;25.70;56.50;;;;;;5044213;28;20037;-78
2021/08/31 12:48:40;;;;;;;8.90;4.47;;;25.60;57.30;;;;;;5074473;28;20036;-75
2021/08/31 12:51:06;;;;;;;10.43;3.55;;;25.50;57.10;;;;;;5074428;28;20031;-77
2021/08/31 12:53:38;;;;;;;7.35;3.92;;;25.40;56.20;;;;;;5071510;28;20131;-75
2021/08/31 12:56:10;;;;;;;4.35;3.40;;;25.20;56.80;;;;;;5056029;28;20378;-75
2021/08/31 12:58:38;;;;;;;9.50;3.97;;;24.90;57.10;;;;;;5074806;28;20051;-75
2021/08/31 13:01:15;;;;;;;8.45;3.78;;;24.70;57.60;;;;;;5074034;28;20558;-74
2021/08/31 13:03:46;;;;;;;6.43;3.88;;;24.70;58.20;;;;;;5053631;28;20119;-75
2021/08/31 13:06:37;;;;;;;7.50;3.95;;;24.90;58.20;;;;;;5061935;28;20025;-78
2021/08/31 13:09:06;;;;;;;9.82;4.00;;;25.10;56.30;;;;;;5054354;28;20032;-75
2021/08/31 13:11:31;;;;;;;6.63;3.88;;;25.40;56.90;;;;;;5053860;28;20047;-77
2021/08/31 13:13:57;;;;;;;11.65;4.35;;;25.50;56.40;;;;;;5052220;28;20044;-75
2021/08/31 13:16:23;;;;;;;6.72;4.45;;;25.60;57.00;;;;;;5073047;28;20021;-75
2021/08/31 13:18:49;;;;;;;6.88;4.75;;;25.60;57.70;;;;;;5075203;28;20025;-74
2021/08/31 13:21:15;;;;;;;7.95;4.22;;;25.40;58.00;;;;;;5057273;28;20510;-77
2021/08/31 13:23:41;;;;;;;6.90;3.90;;;25.20;58.10;;;;;;5049682;28;20119;-75
2021/08/31 13:26:07;;;;;;;5.78;3.58;;;25.20;57.80;;;;;;5071438;28;20049;-76